sensor_id;sensor_type;location;lat;lon;timestamp;P1;durP1;ratioP1;P2;durP2;ratioP2
62696;SDS011;48761;42.680;23.312;2023-04-24T00:00:17;13.55;;;8.05;;
62696;SDS011;48761;42.680;23.312;2023-04-24T00:02:44;21.20;;;8.93;;
62696;SDS011;48761;42.680;23.312;2023-04-24T00:05:10;12.27;;;7.93;;
62696;SDS011;48761;42.680;23.312;2023-04-24T00:07:36;11.48;;;7.93;;
62696;SDS011;48761;42.680;23.312;2023-04-24T00:10:02;15.15;;;9.00;;
62696;SDS011;48761;42.680;23.312;2023-04-24T00:12:28;11.90;;;7.70;;
62696;SDS011;48761;42.680;23.312;2023-04-24T00:14:54;11.25;;;8.43;;
62696;SDS011;48761;42.680;23.312;2023-04-24T00:17:20;12.65;;;7.93;;
62696;SDS011;48761;42.680;23.312;2023-04-24T00:19:47;12.70;;;6.85;;
62696;SDS011;48761;42.680;23.312;2023-04-24T00:22:13;13.18;;;6.65;;
62696;SDS011;48761;42.680;23.312;2023-04-24T00:24:39;14.57;;;6.93;;
62696;SDS011;48761;42.680;23.312;2023-04-24T00:27:05;12.70;;;6.32;;
62696;SDS011;48761;42.680;23.312;2023-04-24T00:29:31;10.85;;;6.22;;
62696;SDS011;48761;42.680;23.312;2023-04-24T00:31:57;11.57;;;6.25;;
62696;SDS011;48761;42.680;23.312;2023-04-24T00:34:23;12.20;;;6.50;;
62696;SDS011;48761;42.680;23.312;2023-04-24T00:36:49;11.10;;;6.45;;
62696;SDS011;48761;42.680;23.312;2023-04-24T00:39:15;11.57;;;6.95;;
62696;SDS011;48761;42.680;23.312;2023-04-24T00:41:41;11.00;;;6.68;;
62696;SDS011;48761;42.680;23.312;2023-04-24T00:44:07;10.82;;;6.55;;
62696;SDS011;48761;42.680;23.312;2023-04-24T00:46:33;11.18;;;6.60;;
62696;SDS011;48761;42.680;23.312;2023-04-24T00:48:59;11.80;;;6.40;;
62696;SDS011;48761;42.680;23.312;2023-04-24T00:51:25;10.70;;;6.47;;
62696;SDS011;48761;42.680;23.312;2023-04-24T00:53:51;12.35;;;6.53;;
62696;SDS011;48761;42.680;23.312;2023-04-24T00:56:17;10.75;;;6.40;;
62696;SDS011;48761;42.680;23.312;2023-04-24T00:58:43;7.90;;;5.72;;
62696;SDS011;48761;42.680;23.312;2023-04-24T01:01:10;13.60;;;6.30;;
62696;SDS011;48761;42.680;23.312;2023-04-24T01:03:36;10.30;;;6.20;;
62696;SDS011;48761;42.680;23.312;2023-04-24T01:06:02;10.25;;;6.07;;
62696;SDS011;48761;42.680;23.312;2023-04-24T01:08:29;11.60;;;6.22;;
62696;SDS011;48761;42.680;23.312;2023-04-24T01:10:55;9.55;;;5.95;;
62696;SDS011;48761;42.680;23.312;2023-04-24T01:13:22;8.02;;;4.93;;
62696;SDS011;48761;42.680;23.312;2023-04-24T01:15:48;10.05;;;5.80;;
62696;SDS011;48761;42.680;23.312;2023-04-24T01:18:14;10.30;;;5.40;;
62696;SDS011;48761;42.680;23.312;2023-04-24T01:20:41;10.45;;;5.63;;
62696;SDS011;48761;42.680;23.312;2023-04-24T01:23:08;7.53;;;5.47;;
62696;SDS011;48761;42.680;23.312;2023-04-24T01:25:34;8.27;;;5.40;;
62696;SDS011;48761;42.680;23.312;2023-04-24T01:28:01;12.23;;;5.88;;
62696;SDS011;48761;42.680;23.312;2023-04-24T01:30:27;11.13;;;6.05;;
62696;SDS011;48761;42.680;23.312;2023-04-24T01:32:53;9.75;;;5.28;;
62696;SDS011;48761;42.680;23.312;2023-04-24T01:35:19;10.45;;;5.72;;
62696;SDS011;48761;42.680;23.312;2023-04-24T01:37:45;8.88;;;6.07;;
62696;SDS011;48761;42.680;23.312;2023-04-24T01:40:11;9.57;;;5.70;;
62696;SDS011;48761;42.680;23.312;2023-04-24T01:42:37;13.90;;;5.93;;
62696;SDS011;48761;42.680;23.312;2023-04-24T01:45:04;11.23;;;6.53;;
62696;SDS011;48761;42.680;23.312;2023-04-24T01:47:31;10.30;;;6.25;;
62696;SDS011;48761;42.680;23.312;2023-04-24T01:49:57;9.70;;;5.85;;
62696;SDS011;48761;42.680;23.312;2023-04-24T01:52:24;8.77;;;5.85;;
62696;SDS011;48761;42.680;23.312;2023-04-24T01:54:50;9.93;;;6.22;;
62696;SDS011;48761;42.680;23.312;2023-04-24T01:57:16;14.02;;;6.30;;
62696;SDS011;48761;42.680;23.312;2023-04-24T01:59:42;10.10;;;6.25;;
62696;SDS011;48761;42.680;23.312;2023-04-24T02:02:08;10.68;;;5.50;;
62696;SDS011;48761;42.680;23.312;2023-04-24T02:04:34;7.88;;;5.88;;
62696;SDS011;48761;42.680;23.312;2023-04-24T02:07:00;9.98;;;5.75;;
62696;SDS011;48761;42.680;23.312;2023-04-24T02:09:25;7.80;;;5.93;;
62696;SDS011;48761;42.680;23.312;2023-04-24T02:11:51;9.38;;;5.65;;
62696;SDS011;48761;42.680;23.312;2023-04-24T02:14:17;13.90;;;6.10;;
62696;SDS011;48761;42.680;23.312;2023-04-24T02:16:43;12.50;;;5.32;;
62696;SDS011;48761;42.680;23.312;2023-04-24T02:19:09;12.75;;;5.90;;
62696;SDS011;48761;42.680;23.312;2023-04-24T02:21:35;10.55;;;6.10;;
62696;SDS011;48761;42.680;23.312;2023-04-24T02:24:01;9.65;;;6.38;;
62696;SDS011;48761;42.680;23.312;2023-04-24T02:26:27;12.60;;;6.20;;
62696;SDS011;48761;42.680;23.312;2023-04-24T02:28:53;8.55;;;5.85;;
62696;SDS011;48761;42.680;23.312;2023-04-24T02:31:19;8.70;;;5.68;;
62696;SDS011;48761;42.680;23.312;2023-04-24T02:33:45;14.50;;;6.50;;
62696;SDS011;48761;42.680;23.312;2023-04-24T02:36:11;10.57;;;6.30;;
62696;SDS011;48761;42.680;23.312;2023-04-24T02:38:37;13.88;;;6.30;;
62696;SDS011;48761;42.680;23.312;2023-04-24T02:41:03;10.50;;;6.03;;
62696;SDS011;48761;42.680;23.312;2023-04-24T02:43:29;13.77;;;6.60;;
62696;SDS011;48761;42.680;23.312;2023-04-24T02:45:55;10.80;;;5.80;;
62696;SDS011;48761;42.680;23.312;2023-04-24T02:48:21;10.10;;;6.07;;
62696;SDS011;48761;42.680;23.312;2023-04-24T02:50:47;8.68;;;6.30;;
62696;SDS011;48761;42.680;23.312;2023-04-24T02:53:12;20.52;;;7.00;;
62696;SDS011;48761;42.680;23.312;2023-04-24T02:55:38;11.68;;;6.63;;
62696;SDS011;48761;42.680;23.312;2023-04-24T02:58:04;14.43;;;7.95;;
62696;SDS011;48761;42.680;23.312;2023-04-24T03:00:30;16.40;;;9.05;;
62696;SDS011;48761;42.680;23.312;2023-04-24T03:02:56;13.07;;;8.90;;
62696;SDS011;48761;42.680;23.312;2023-04-24T03:05:22;13.18;;;9.38;;
62696;SDS011;48761;42.680;23.312;2023-04-24T03:07:48;16.63;;;8.75;;
62696;SDS011;48761;42.680;23.312;2023-04-24T03:10:14;15.10;;;9.85;;
62696;SDS011;48761;42.680;23.312;2023-04-24T03:12:40;14.10;;;9.35;;
62696;SDS011;48761;42.680;23.312;2023-04-24T03:15:06;14.60;;;8.13;;
62696;SDS011;48761;42.680;23.312;2023-04-24T03:17:32;13.32;;;7.80;;
62696;SDS011;48761;42.680;23.312;2023-04-24T03:19:58;14.23;;;8.55;;
62696;SDS011;48761;42.680;23.312;2023-04-24T03:22:24;25.58;;;15.65;;
62696;SDS011;48761;42.680;23.312;2023-04-24T03:24:50;48.97;;;29.08;;
62696;SDS011;48761;42.680;23.312;2023-04-24T03:27:16;18.33;;;10.50;;
62696;SDS011;48761;42.680;23.312;2023-04-24T03:29:42;17.52;;;10.10;;
62696;SDS011;48761;42.680;23.312;2023-04-24T03:32:08;23.88;;;14.13;;
62696;SDS011;48761;42.680;23.312;2023-04-24T03:34:34;21.30;;;12.82;;
62696;SDS011;48761;42.680;23.312;2023-04-24T03:37:00;19.70;;;9.93;;
62696;SDS011;48761;42.680;23.312;2023-04-24T03:39:25;22.83;;;13.20;;
62696;SDS011;48761;42.680;23.312;2023-04-24T03:41:51;22.75;;;15.20;;
62696;SDS011;48761;42.680;23.312;2023-04-24T03:44:17;23.75;;;14.13;;
62696;SDS011;48761;42.680;23.312;2023-04-24T03:46:43;16.92;;;11.48;;
62696;SDS011;48761;42.680;23.312;2023-04-24T03:49:09;26.42;;;12.93;;
62696;SDS011;48761;42.680;23.312;2023-04-24T03:51:35;21.33;;;12.35;;
62696;SDS011;48761;42.680;23.312;2023-04-24T03:54:01;31.83;;;20.85;;
62696;SDS011;48761;42.680;23.312;2023-04-24T03:56:27;17.10;;;11.13;;
62696;SDS011;48761;42.680;23.312;2023-04-24T03:58:53;21.33;;;11.82;;
62696;SDS011;48761;42.680;23.312;2023-04-24T04:01:18;20.27;;;10.68;;
62696;SDS011;48761;42.680;23.312;2023-04-24T04:03:44;21.98;;;11.45;;
62696;SDS011;48761;42.680;23.312;2023-04-24T04:06:10;23.02;;;12.75;;
62696;SDS011;48761;42.680;23.312;2023-04-24T04:08:36;19.67;;;11.60;;
62696;SDS011;48761;42.680;23.312;2023-04-24T04:11:02;16.98;;;11.30;;
62696;SDS011;48761;42.680;23.312;2023-04-24T04:13:28;17.75;;;10.88;;
62696;SDS011;48761;42.680;23.312;2023-04-24T04:15:54;21.58;;;12.73;;
62696;SDS011;48761;42.680;23.312;2023-04-24T04:18:35;21.00;;;11.55;;
62696;SDS011;48761;42.680;23.312;2023-04-24T04:21:01;18.35;;;9.90;;
62696;SDS011;48761;42.680;23.312;2023-04-24T04:23:27;24.50;;;9.73;;
62696;SDS011;48761;42.680;23.312;2023-04-24T04:25:53;20.77;;;9.23;;
62696;SDS011;48761;42.680;23.312;2023-04-24T04:28:19;14.63;;;8.35;;
62696;SDS011;48761;42.680;23.312;2023-04-24T04:30:45;18.67;;;8.68;;
62696;SDS011;48761;42.680;23.312;2023-04-24T04:33:11;16.05;;;7.55;;
62696;SDS011;48761;42.680;23.312;2023-04-24T04:35:37;14.00;;;7.22;;
62696;SDS011;48761;42.680;23.312;2023-04-24T04:38:03;12.00;;;7.22;;
62696;SDS011;48761;42.680;23.312;2023-04-24T04:40:28;12.55;;;6.47;;
62696;SDS011;48761;42.680;23.312;2023-04-24T04:42:54;9.77;;;6.22;;
62696;SDS011;48761;42.680;23.312;2023-04-24T04:45:20;11.43;;;5.95;;
62696;SDS011;48761;42.680;23.312;2023-04-24T04:47:47;9.70;;;5.25;;
62696;SDS011;48761;42.680;23.312;2023-04-24T04:50:13;15.85;;;6.13;;
62696;SDS011;48761;42.680;23.312;2023-04-24T04:52:39;11.07;;;6.28;;
62696;SDS011;48761;42.680;23.312;2023-04-24T04:55:05;10.55;;;5.50;;
62696;SDS011;48761;42.680;23.312;2023-04-24T04:57:31;11.48;;;6.30;;
62696;SDS011;48761;42.680;23.312;2023-04-24T04:59:57;16.40;;;6.82;;
62696;SDS011;48761;42.680;23.312;2023-04-24T05:02:23;12.02;;;5.75;;
62696;SDS011;48761;42.680;23.312;2023-04-24T05:04:49;11.48;;;6.00;;
62696;SDS011;48761;42.680;23.312;2023-04-24T05:07:17;13.85;;;6.57;;
62696;SDS011;48761;42.680;23.312;2023-04-24T05:09:43;18.75;;;6.13;;
62696;SDS011;48761;42.680;23.312;2023-04-24T05:12:09;10.13;;;6.85;;
62696;SDS011;48761;42.680;23.312;2023-04-24T05:14:35;12.75;;;6.40;;
62696;SDS011;48761;42.680;23.312;2023-04-24T05:17:01;10.55;;;5.68;;
62696;SDS011;48761;42.680;23.312;2023-04-24T05:19:27;16.30;;;7.13;;
62696;SDS011;48761;42.680;23.312;2023-04-24T05:21:53;10.98;;;6.45;;
62696;SDS011;48761;42.680;23.312;2023-04-24T05:24:20;9.52;;;6.32;;
62696;SDS011;48761;42.680;23.312;2023-04-24T05:26:46;12.13;;;6.78;;
62696;SDS011;48761;42.680;23.312;2023-04-24T05:29:12;11.10;;;6.78;;
62696;SDS011;48761;42.680;23.312;2023-04-24T05:31:38;10.30;;;6.50;;
62696;SDS011;48761;42.680;23.312;2023-04-24T05:34:04;13.00;;;7.70;;
62696;SDS011;48761;42.680;23.312;2023-04-24T05:36:30;20.73;;;8.18;;
62696;SDS011;48761;42.680;23.312;2023-04-24T05:38:56;16.23;;;6.95;;
62696;SDS011;48761;42.680;23.312;2023-04-24T05:41:21;17.73;;;8.15;;
62696;SDS011;48761;42.680;23.312;2023-04-24T05:43:47;14.32;;;8.30;;
62696;SDS011;48761;42.680;23.312;2023-04-24T05:46:13;10.88;;;7.80;;
62696;SDS011;48761;42.680;23.312;2023-04-24T05:48:39;15.93;;;7.55;;
62696;SDS011;48761;42.680;23.312;2023-04-24T05:51:05;14.65;;;7.70;;
62696;SDS011;48761;42.680;23.312;2023-04-24T05:53:31;13.50;;;8.13;;
62696;SDS011;48761;42.680;23.312;2023-04-24T05:55:57;16.38;;;8.45;;
62696;SDS011;48761;42.680;23.312;2023-04-24T05:58:23;19.60;;;8.50;;
62696;SDS011;48761;42.680;23.312;2023-04-24T06:00:49;15.93;;;8.73;;
62696;SDS011;48761;42.680;23.312;2023-04-24T06:03:15;17.63;;;8.35;;
62696;SDS011;48761;42.680;23.312;2023-04-24T06:05:41;17.27;;;8.63;;
62696;SDS011;48761;42.680;23.312;2023-04-24T06:08:07;16.95;;;8.32;;
62696;SDS011;48761;42.680;23.312;2023-04-24T06:10:33;13.70;;;9.65;;
62696;SDS011;48761;42.680;23.312;2023-04-24T06:12:59;14.73;;;9.20;;
62696;SDS011;48761;42.680;23.312;2023-04-24T06:15:27;16.55;;;8.88;;
62696;SDS011;48761;42.680;23.312;2023-04-24T06:17:54;15.05;;;9.30;;
62696;SDS011;48761;42.680;23.312;2023-04-24T06:20:20;19.33;;;9.75;;
62696;SDS011;48761;42.680;23.312;2023-04-24T06:22:46;21.90;;;9.45;;
62696;SDS011;48761;42.680;23.312;2023-04-24T06:25:12;17.23;;;8.90;;
62696;SDS011;48761;42.680;23.312;2023-04-24T06:27:38;20.65;;;9.63;;
62696;SDS011;48761;42.680;23.312;2023-04-24T06:30:04;18.17;;;9.60;;
62696;SDS011;48761;42.680;23.312;2023-04-24T06:32:30;23.92;;;16.52;;
62696;SDS011;48761;42.680;23.312;2023-04-24T06:34:56;18.23;;;9.70;;
62696;SDS011;48761;42.680;23.312;2023-04-24T06:37:22;19.20;;;10.50;;
62696;SDS011;48761;42.680;23.312;2023-04-24T06:39:48;24.50;;;15.68;;
62696;SDS011;48761;42.680;23.312;2023-04-24T06:42:14;21.50;;;10.68;;
62696;SDS011;48761;42.680;23.312;2023-04-24T06:44:40;19.75;;;10.23;;
62696;SDS011;48761;42.680;23.312;2023-04-24T06:47:07;16.67;;;9.40;;
62696;SDS011;48761;42.680;23.312;2023-04-24T06:49:34;14.57;;;9.43;;
62696;SDS011;48761;42.680;23.312;2023-04-24T06:52:00;18.02;;;9.75;;
62696;SDS011;48761;42.680;23.312;2023-04-24T06:54:26;22.95;;;10.75;;
62696;SDS011;48761;42.680;23.312;2023-04-24T06:56:52;23.50;;;10.48;;
62696;SDS011;48761;42.680;23.312;2023-04-24T06:59:18;16.35;;;10.38;;
62696;SDS011;48761;42.680;23.312;2023-04-24T07:01:44;19.95;;;12.68;;
62696;SDS011;48761;42.680;23.312;2023-04-24T07:04:10;19.63;;;10.40;;
62696;SDS011;48761;42.680;23.312;2023-04-24T07:06:36;13.75;;;9.20;;
62696;SDS011;48761;42.680;23.312;2023-04-24T07:09:02;15.20;;;8.95;;
62696;SDS011;48761;42.680;23.312;2023-04-24T07:11:28;19.83;;;10.38;;
62696;SDS011;48761;42.680;23.312;2023-04-24T07:13:55;18.60;;;9.50;;
62696;SDS011;48761;42.680;23.312;2023-04-24T07:16:21;10.95;;;8.00;;
62696;SDS011;48761;42.680;23.312;2023-04-24T07:18:47;16.90;;;8.25;;
62696;SDS011;48761;42.680;23.312;2023-04-24T07:21:13;14.73;;;9.98;;
62696;SDS011;48761;42.680;23.312;2023-04-24T07:23:39;14.95;;;9.07;;
62696;SDS011;48761;42.680;23.312;2023-04-24T07:26:05;18.58;;;9.85;;
62696;SDS011;48761;42.680;23.312;2023-04-24T07:28:31;20.20;;;9.30;;
62696;SDS011;48761;42.680;23.312;2023-04-24T07:30:57;15.27;;;9.75;;
62696;SDS011;48761;42.680;23.312;2023-04-24T07:33:23;13.38;;;7.85;;
62696;SDS011;48761;42.680;23.312;2023-04-24T07:35:49;16.55;;;9.02;;
62696;SDS011;48761;42.680;23.312;2023-04-24T07:38:15;13.60;;;8.23;;
62696;SDS011;48761;42.680;23.312;2023-04-24T07:40:41;19.27;;;9.10;;
62696;SDS011;48761;42.680;23.312;2023-04-24T07:43:10;10.75;;;7.65;;
62696;SDS011;48761;42.680;23.312;2023-04-24T07:45:35;13.32;;;7.07;;
62696;SDS011;48761;42.680;23.312;2023-04-24T07:48:02;14.40;;;7.88;;
62696;SDS011;48761;42.680;23.312;2023-04-24T07:50:28;9.07;;;5.85;;
62696;SDS011;48761;42.680;23.312;2023-04-24T07:52:53;9.32;;;6.18;;
62696;SDS011;48761;42.680;23.312;2023-04-24T07:55:19;9.30;;;6.28;;
62696;SDS011;48761;42.680;23.312;2023-04-24T07:57:45;6.85;;;4.85;;
62696;SDS011;48761;42.680;23.312;2023-04-24T08:00:11;9.18;;;5.78;;
62696;SDS011;48761;42.680;23.312;2023-04-24T08:02:37;12.57;;;7.80;;
62696;SDS011;48761;42.680;23.312;2023-04-24T08:05:04;11.77;;;6.63;;
62696;SDS011;48761;42.680;23.312;2023-04-24T08:07:30;10.13;;;6.50;;
62696;SDS011;48761;42.680;23.312;2023-04-24T08:09:56;13.80;;;6.85;;
62696;SDS011;48761;42.680;23.312;2023-04-24T08:12:22;10.35;;;6.93;;
62696;SDS011;48761;42.680;23.312;2023-04-24T08:14:48;14.43;;;10.27;;
62696;SDS011;48761;42.680;23.312;2023-04-24T08:17:14;11.70;;;7.93;;
62696;SDS011;48761;42.680;23.312;2023-04-24T08:19:42;12.18;;;7.25;;
62696;SDS011;48761;42.680;23.312;2023-04-24T08:22:08;11.77;;;7.95;;
62696;SDS011;48761;42.680;23.312;2023-04-24T08:24:34;11.18;;;7.55;;
62696;SDS011;48761;42.680;23.312;2023-04-24T08:27:01;10.32;;;7.20;;
62696;SDS011;48761;42.680;23.312;2023-04-24T08:29:27;13.63;;;7.78;;
62696;SDS011;48761;42.680;23.312;2023-04-24T08:31:59;12.35;;;7.80;;
62696;SDS011;48761;42.680;23.312;2023-04-24T08:34:25;10.73;;;6.90;;
62696;SDS011;48761;42.680;23.312;2023-04-24T08:36:51;12.25;;;7.80;;
62696;SDS011;48761;42.680;23.312;2023-04-24T08:39:17;10.85;;;7.93;;
62696;SDS011;48761;42.680;23.312;2023-04-24T08:41:43;11.85;;;6.88;;
62696;SDS011;48761;42.680;23.312;2023-04-24T08:44:10;14.60;;;7.72;;
62696;SDS011;48761;42.680;23.312;2023-04-24T08:46:36;9.13;;;6.28;;
62696;SDS011;48761;42.680;23.312;2023-04-24T08:49:02;10.00;;;7.22;;
62696;SDS011;48761;42.680;23.312;2023-04-24T08:51:29;9.60;;;6.25;;
62696;SDS011;48761;42.680;23.312;2023-04-24T08:53:56;11.23;;;7.22;;
62696;SDS011;48761;42.680;23.312;2023-04-24T08:56:23;12.82;;;6.65;;
62696;SDS011;48761;42.680;23.312;2023-04-24T08:58:50;8.93;;;5.95;;
62696;SDS011;48761;42.680;23.312;2023-04-24T09:01:19;11.43;;;6.55;;
62696;SDS011;48761;42.680;23.312;2023-04-24T09:03:46;12.98;;;7.10;;
62696;SDS011;48761;42.680;23.312;2023-04-24T09:06:14;10.27;;;6.65;;
62696;SDS011;48761;42.680;23.312;2023-04-24T09:08:43;9.32;;;6.43;;
62696;SDS011;48761;42.680;23.312;2023-04-24T09:11:11;11.38;;;6.97;;
62696;SDS011;48761;42.680;23.312;2023-04-24T09:13:37;13.13;;;6.18;;
62696;SDS011;48761;42.680;23.312;2023-04-24T09:16:03;10.25;;;6.28;;
62696;SDS011;48761;42.680;23.312;2023-04-24T09:18:29;8.07;;;6.03;;
62696;SDS011;48761;42.680;23.312;2023-04-24T09:20:59;12.35;;;6.47;;
62696;SDS011;48761;42.680;23.312;2023-04-24T09:23:32;10.20;;;6.70;;
62696;SDS011;48761;42.680;23.312;2023-04-24T09:25:58;11.48;;;7.32;;
62696;SDS011;48761;42.680;23.312;2023-04-24T09:28:35;9.73;;;5.80;;
62696;SDS011;48761;42.680;23.312;2023-04-24T09:31:03;11.38;;;6.25;;
62696;SDS011;48761;42.680;23.312;2023-04-24T09:33:39;11.82;;;5.70;;
62696;SDS011;48761;42.680;23.312;2023-04-24T09:36:05;10.70;;;5.90;;
62696;SDS011;48761;42.680;23.312;2023-04-24T09:40:59;11.02;;;5.38;;
62696;SDS011;48761;42.680;23.312;2023-04-24T09:43:30;7.03;;;5.63;;
62696;SDS011;48761;42.680;23.312;2023-04-24T09:45:57;10.15;;;5.22;;
62696;SDS011;48761;42.680;23.312;2023-04-24T09:48:33;9.25;;;5.45;;
62696;SDS011;48761;42.680;23.312;2023-04-24T09:51:00;7.70;;;5.05;;
62696;SDS011;48761;42.680;23.312;2023-04-24T09:53:28;9.30;;;5.40;;
62696;SDS011;48761;42.680;23.312;2023-04-24T09:55:55;8.48;;;5.72;;
62696;SDS011;48761;42.680;23.312;2023-04-24T09:58:25;9.45;;;6.00;;
62696;SDS011;48761;42.680;23.312;2023-04-24T10:00:55;10.32;;;5.68;;
62696;SDS011;48761;42.680;23.312;2023-04-24T10:03:25;8.65;;;5.03;;
62696;SDS011;48761;42.680;23.312;2023-04-24T10:05:51;10.63;;;5.50;;
62696;SDS011;48761;42.680;23.312;2023-04-24T10:08:18;9.18;;;5.53;;
62696;SDS011;48761;42.680;23.312;2023-04-24T10:10:45;8.45;;;4.80;;
62696;SDS011;48761;42.680;23.312;2023-04-24T10:13:12;10.10;;;5.10;;
62696;SDS011;48761;42.680;23.312;2023-04-24T10:15:40;10.63;;;4.88;;
62696;SDS011;48761;42.680;23.312;2023-04-24T10:18:07;7.53;;;5.07;;
62696;SDS011;48761;42.680;23.312;2023-04-24T10:20:34;7.82;;;5.20;;
62696;SDS011;48761;42.680;23.312;2023-04-24T10:23:03;8.95;;;5.10;;
62696;SDS011;48761;42.680;23.312;2023-04-24T10:25:30;7.22;;;5.00;;
62696;SDS011;48761;42.680;23.312;2023-04-24T10:27:57;9.70;;;4.97;;
62696;SDS011;48761;42.680;23.312;2023-04-24T10:30:24;14.32;;;10.02;;
62696;SDS011;48761;42.680;23.312;2023-04-24T10:32:51;9.18;;;4.55;;
62696;SDS011;48761;42.680;23.312;2023-04-24T10:35:17;9.38;;;4.47;;
62696;SDS011;48761;42.680;23.312;2023-04-24T10:38:03;6.38;;;4.38;;
62696;SDS011;48761;42.680;23.312;2023-04-24T10:40:34;8.23;;;5.80;;
62696;SDS011;48761;42.680;23.312;2023-04-24T10:43:04;9.45;;;5.25;;
62696;SDS011;48761;42.680;23.312;2023-04-24T10:45:31;8.88;;;4.70;;
62696;SDS011;48761;42.680;23.312;2023-04-24T10:50:27;11.00;;;4.85;;
62696;SDS011;48761;42.680;23.312;2023-04-24T10:53:04;8.10;;;4.97;;
62696;SDS011;48761;42.680;23.312;2023-04-24T10:55:41;8.57;;;4.75;;
62696;SDS011;48761;42.680;23.312;2023-04-24T10:58:11;9.38;;;4.38;;
62696;SDS011;48761;42.680;23.312;2023-04-24T11:00:38;9.95;;;5.15;;
62696;SDS011;48761;42.680;23.312;2023-04-24T11:03:22;8.45;;;4.68;;
62696;SDS011;48761;42.680;23.312;2023-04-24T11:05:57;8.82;;;5.13;;
62696;SDS011;48761;42.680;23.312;2023-04-24T11:08:29;7.22;;;4.80;;
62696;SDS011;48761;42.680;23.312;2023-04-24T11:10:58;10.80;;;5.25;;
62696;SDS011;48761;42.680;23.312;2023-04-24T11:16:29;8.23;;;5.15;;
62696;SDS011;48761;42.680;23.312;2023-04-24T11:21:31;10.75;;;6.30;;
62696;SDS011;48761;42.680;23.312;2023-04-24T11:29:47;8.02;;;4.88;;
62696;SDS011;48761;42.680;23.312;2023-04-24T11:34:56;9.82;;;5.32;;
62696;SDS011;48761;42.680;23.312;2023-04-24T11:37:25;10.43;;;5.00;;
62696;SDS011;48761;42.680;23.312;2023-04-24T11:39:57;6.07;;;4.05;;
62696;SDS011;48761;42.680;23.312;2023-04-24T11:42:24;4.85;;;3.83;;
62696;SDS011;48761;42.680;23.312;2023-04-24T11:44:50;8.32;;;4.50;;
62696;SDS011;48761;42.680;23.312;2023-04-24T11:47:18;6.47;;;4.38;;
62696;SDS011;48761;42.680;23.312;2023-04-24T11:49:44;4.40;;;3.85;;
62696;SDS011;48761;42.680;23.312;2023-04-24T11:52:10;6.57;;;4.30;;
62696;SDS011;48761;42.680;23.312;2023-04-24T11:54:36;5.35;;;3.90;;
62696;SDS011;48761;42.680;23.312;2023-04-24T11:57:05;6.13;;;3.70;;
62696;SDS011;48761;42.680;23.312;2023-04-24T11:59:35;6.03;;;4.25;;
62696;SDS011;48761;42.680;23.312;2023-04-24T12:02:02;7.80;;;3.95;;
62696;SDS011;48761;42.680;23.312;2023-04-24T12:04:37;6.47;;;4.50;;
62696;SDS011;48761;42.680;23.312;2023-04-24T12:07:04;8.77;;;4.20;;
62696;SDS011;48761;42.680;23.312;2023-04-24T12:12:24;6.40;;;3.97;;
62696;SDS011;48761;42.680;23.312;2023-04-24T12:14:53;5.38;;;4.30;;
62696;SDS011;48761;42.680;23.312;2023-04-24T12:17:24;6.13;;;4.03;;
62696;SDS011;48761;42.680;23.312;2023-04-24T12:20:01;5.75;;;4.10;;
62696;SDS011;48761;42.680;23.312;2023-04-24T12:25:16;5.63;;;4.05;;
62696;SDS011;48761;42.680;23.312;2023-04-24T12:27:44;5.28;;;4.03;;
62696;SDS011;48761;42.680;23.312;2023-04-24T12:30:12;5.22;;;3.97;;
62696;SDS011;48761;42.680;23.312;2023-04-24T12:32:43;4.88;;;3.55;;
62696;SDS011;48761;42.680;23.312;2023-04-24T12:35:10;4.60;;;3.67;;
62696;SDS011;48761;42.680;23.312;2023-04-24T12:37:36;6.80;;;3.50;;
62696;SDS011;48761;42.680;23.312;2023-04-24T12:40:04;5.22;;;3.92;;
62696;SDS011;48761;42.680;23.312;2023-04-24T12:42:47;5.60;;;3.83;;
62696;SDS011;48761;42.680;23.312;2023-04-24T12:45:14;5.13;;;3.60;;
62696;SDS011;48761;42.680;23.312;2023-04-24T12:47:42;5.30;;;3.55;;
62696;SDS011;48761;42.680;23.312;2023-04-24T12:50:10;4.40;;;3.45;;
62696;SDS011;48761;42.680;23.312;2023-04-24T12:52:37;4.95;;;3.55;;
62696;SDS011;48761;42.680;23.312;2023-04-24T12:55:04;4.97;;;4.10;;
62696;SDS011;48761;42.680;23.312;2023-04-24T12:57:30;5.47;;;3.70;;
62696;SDS011;48761;42.680;23.312;2023-04-24T12:59:58;4.82;;;3.75;;
62696;SDS011;48761;42.680;23.312;2023-04-24T13:02:25;5.03;;;4.00;;
62696;SDS011;48761;42.680;23.312;2023-04-24T13:04:52;7.13;;;4.15;;
62696;SDS011;48761;42.680;23.312;2023-04-24T13:07:18;7.38;;;3.85;;
62696;SDS011;48761;42.680;23.312;2023-04-24T13:09:45;4.88;;;3.90;;
62696;SDS011;48761;42.680;23.312;2023-04-24T13:12:12;5.05;;;4.07;;
62696;SDS011;48761;42.680;23.312;2023-04-24T13:14:39;9.23;;;4.68;;
62696;SDS011;48761;42.680;23.312;2023-04-24T13:17:05;4.90;;;3.70;;
62696;SDS011;48761;42.680;23.312;2023-04-24T13:19:35;5.32;;;4.10;;
62696;SDS011;48761;42.680;23.312;2023-04-24T13:22:05;5.95;;;4.07;;
62696;SDS011;48761;42.680;23.312;2023-04-24T13:24:32;7.60;;;3.78;;
62696;SDS011;48761;42.680;23.312;2023-04-24T13:26:58;5.68;;;3.90;;
62696;SDS011;48761;42.680;23.312;2023-04-24T13:29:25;6.85;;;3.60;;
62696;SDS011;48761;42.680;23.312;2023-04-24T13:31:51;5.10;;;3.92;;
62696;SDS011;48761;42.680;23.312;2023-04-24T13:34:18;7.03;;;4.10;;
62696;SDS011;48761;42.680;23.312;2023-04-24T13:36:44;5.85;;;3.88;;
62696;SDS011;48761;42.680;23.312;2023-04-24T13:39:10;6.13;;;3.63;;
62696;SDS011;48761;42.680;23.312;2023-04-24T13:41:36;8.25;;;4.00;;
62696;SDS011;48761;42.680;23.312;2023-04-24T13:44:02;11.68;;;4.13;;
62696;SDS011;48761;42.680;23.312;2023-04-24T13:46:29;7.68;;;4.70;;
62696;SDS011;48761;42.680;23.312;2023-04-24T13:48:55;7.97;;;4.07;;
62696;SDS011;48761;42.680;23.312;2023-04-24T13:51:22;6.32;;;3.90;;
62696;SDS011;48761;42.680;23.312;2023-04-24T13:53:48;9.88;;;3.97;;
62696;SDS011;48761;42.680;23.312;2023-04-24T13:56:14;7.22;;;4.00;;
62696;SDS011;48761;42.680;23.312;2023-04-24T13:58:40;4.45;;;3.67;;
62696;SDS011;48761;42.680;23.312;2023-04-24T14:01:06;5.05;;;4.00;;
62696;SDS011;48761;42.680;23.312;2023-04-24T14:03:33;7.78;;;4.32;;
62696;SDS011;48761;42.680;23.312;2023-04-24T14:05:59;7.45;;;4.13;;
62696;SDS011;48761;42.680;23.312;2023-04-24T14:08:25;6.47;;;3.63;;
62696;SDS011;48761;42.680;23.312;2023-04-24T14:10:51;4.68;;;3.45;;
62696;SDS011;48761;42.680;23.312;2023-04-24T14:13:17;7.63;;;4.43;;
62696;SDS011;48761;42.680;23.312;2023-04-24T14:15:44;6.47;;;4.03;;
62696;SDS011;48761;42.680;23.312;2023-04-24T14:18:09;5.20;;;3.95;;
62696;SDS011;48761;42.680;23.312;2023-04-24T14:20:35;4.70;;;3.60;;
62696;SDS011;48761;42.680;23.312;2023-04-24T14:23:01;6.10;;;4.50;;
62696;SDS011;48761;42.680;23.312;2023-04-24T14:25:27;7.05;;;3.72;;
62696;SDS011;48761;42.680;23.312;2023-04-24T14:27:53;7.88;;;3.75;;
62696;SDS011;48761;42.680;23.312;2023-04-24T14:30:19;4.95;;;4.32;;
62696;SDS011;48761;42.680;23.312;2023-04-24T14:32:49;7.18;;;4.28;;
62696;SDS011;48761;42.680;23.312;2023-04-24T14:35:15;7.93;;;4.55;;
62696;SDS011;48761;42.680;23.312;2023-04-24T14:37:41;6.10;;;4.07;;
62696;SDS011;48761;42.680;23.312;2023-04-24T14:40:07;8.25;;;3.78;;
62696;SDS011;48761;42.680;23.312;2023-04-24T14:42:33;6.07;;;3.60;;
62696;SDS011;48761;42.680;23.312;2023-04-24T14:44:59;5.25;;;3.80;;
62696;SDS011;48761;42.680;23.312;2023-04-24T14:47:25;5.38;;;3.65;;